createdAt,value
2022-11-23T00:02:15.931Z,5.07
2022-11-23T00:04:42.133Z,5.15
2022-11-23T00:07:08.372Z,5.26
2022-11-23T00:09:34.628Z,5.29
2022-11-23T00:12:00.734Z,5.41
2022-11-23T00:14:26.891Z,5.49
2022-11-23T00:16:53.051Z,5.53
2022-11-23T00:19:19.169Z,5.53
2022-11-23T00:21:45.297Z,5.64
2022-11-23T00:24:11.430Z,5.72
2022-11-23T00:26:37.599Z,5.80
2022-11-23T00:29:03.803Z,5.86
2022-11-23T00:31:29.975Z,5.86
2022-11-23T00:33:56.098Z,5.83
2022-11-23T00:36:22.270Z,5.86
2022-11-23T00:38:48.423Z,5.90
2022-11-23T00:41:14.571Z,5.83
2022-11-23T00:43:40.699Z,5.80
2022-11-23T00:46:06.870Z,5.79
2022-11-23T00:48:33.054Z,5.76
2022-11-23T00:50:59.177Z,5.72
2022-11-23T00:53:25.374Z,5.68
2022-11-23T00:55:51.554Z,5.65
2022-11-23T00:58:17.738Z,5.62
2022-11-23T01:00:43.869Z,5.56
2022-11-23T01:03:10.053Z,5.54
2022-11-23T01:05:36.199Z,5.43
2022-11-23T01:08:02.312Z,5.35
2022-11-23T01:10:28.476Z,5.25
2022-11-23T01:12:54.666Z,5.20
2022-11-23T01:15:20.817Z,5.22
2022-11-23T01:17:46.986Z,5.22
2022-11-23T01:20:13.180Z,5.26
2022-11-23T01:22:39.330Z,5.28
2022-11-23T01:25:05.446Z,5.27
2022-11-23T01:27:31.627Z,5.27
2022-11-23T01:29:57.752Z,5.28
2022-11-23T01:32:23.910Z,5.29
2022-11-23T01:34:50.061Z,5.30
2022-11-23T01:37:16.227Z,5.36
2022-11-23T01:39:42.608Z,5.42
2022-11-23T01:42:08.763Z,5.42
2022-11-23T01:44:34.970Z,5.41
2022-11-23T01:47:01.220Z,5.41
2022-11-23T01:49:27.402Z,5.44
2022-11-23T01:51:53.562Z,5.49
2022-11-23T01:54:19.730Z,5.54
2022-11-23T01:56:45.902Z,5.63
2022-11-23T01:59:12.073Z,5.68
2022-11-23T02:01:38.274Z,5.77
2022-11-23T02:04:04.435Z,5.83
2022-11-23T02:06:30.575Z,5.93
2022-11-23T02:08:56.746Z,5.99
2022-11-23T02:11:22.882Z,6.07
2022-11-23T02:13:49.040Z,6.09
2022-11-23T02:16:15.194Z,6.11
2022-11-23T02:18:41.359Z,6.12
2022-11-23T02:21:07.541Z,6.17
2022-11-23T02:23:33.705Z,6.19
2022-11-23T02:25:59.939Z,6.18
2022-11-23T02:28:26.071Z,6.12
2022-11-23T02:30:52.242Z,6.13
2022-11-23T02:33:18.351Z,6.10
2022-11-23T02:35:44.517Z,6.15
2022-11-23T02:38:10.707Z,6.16
2022-11-23T02:40:36.847Z,6.30
2022-11-23T02:43:03.019Z,6.40
2022-11-23T02:45:29.162Z,6.39
2022-11-23T02:47:55.350Z,6.42
2022-11-23T02:50:21.519Z,6.47
2022-11-23T02:52:47.678Z,6.41
2022-11-23T02:55:13.828Z,6.42
2022-11-23T02:57:39.973Z,6.33
2022-11-23T03:00:06.177Z,6.26
2022-11-23T03:02:32.344Z,6.26
2022-11-23T03:04:58.502Z,6.24
2022-11-23T03:07:24.687Z,6.21
2022-11-23T03:09:50.841Z,6.19
2022-11-23T03:12:16.987Z,6.15
2022-11-23T03:14:43.174Z,6.14
2022-11-23T03:17:09.338Z,6.09
2022-11-23T03:19:35.697Z,6.10
2022-11-23T03:22:01.925Z,6.12
2022-11-23T03:24:28.083Z,6.09
2022-11-23T03:26:54.280Z,6.09
2022-11-23T03:29:20.449Z,6.10
2022-11-23T03:31:46.596Z,6.08
2022-11-23T03:34:12.748Z,6.05
2022-11-23T03:36:38.876Z,5.99
2022-11-23T03:39:05.069Z,5.98
2022-11-23T03:41:31.264Z,5.96
2022-11-23T03:43:57.383Z,5.94
2022-11-23T03:46:23.488Z,5.94
2022-11-23T03:48:49.654Z,5.92
2022-11-23T03:51:15.782Z,5.94
2022-11-23T03:53:41.966Z,5.94
2022-11-23T03:56:08.146Z,6.00
2022-11-23T03:58:34.309Z,5.96
2022-11-23T04:01:00.505Z,6.00
2022-11-23T04:03:26.737Z,6.01
2022-11-23T04:05:52.934Z,6.11
2022-11-23T04:08:19.085Z,6.16
2022-11-23T04:10:45.271Z,6.20
2022-11-23T04:13:11.441Z,6.28
2022-11-23T04:15:37.649Z,6.31
2022-11-23T04:18:03.820Z,6.29
2022-11-23T04:20:29.953Z,6.29
2022-11-23T04:22:56.116Z,6.29
2022-11-23T04:25:22.264Z,6.28
2022-11-23T04:27:48.415Z,6.36
2022-11-23T04:30:14.599Z,6.40
2022-11-23T04:32:40.721Z,6.37
2022-11-23T04:35:06.848Z,6.44
2022-11-23T04:37:33.009Z,6.49
2022-11-23T04:39:59.183Z,6.51
2022-11-23T04:42:25.321Z,6.50
2022-11-23T04:44:51.431Z,6.55
2022-11-23T04:47:17.612Z,6.50
2022-11-23T04:49:43.782Z,6.50
2022-11-23T04:52:09.980Z,6.49
2022-11-23T04:54:36.146Z,6.56
2022-11-23T04:57:02.280Z,6.54
2022-11-23T04:59:28.585Z,6.56
2022-11-23T05:01:54.863Z,6.58
2022-11-23T05:04:21.024Z,6.56
2022-11-23T05:06:47.177Z,6.55
2022-11-23T05:09:13.351Z,6.58
2022-11-23T05:11:39.497Z,6.49
2022-11-23T05:14:05.654Z,6.55
2022-11-23T05:16:31.823Z,6.58
2022-11-23T05:18:57.990Z,6.53
2022-11-23T05:21:24.095Z,6.52
2022-11-23T05:23:50.211Z,6.50
2022-11-23T05:26:16.340Z,6.49
2022-11-23T05:28:42.523Z,6.48
2022-11-23T05:31:08.714Z,6.50
2022-11-23T05:33:34.890Z,6.50
2022-11-23T05:36:01.042Z,6.58
2022-11-23T05:38:27.249Z,6.56
2022-11-23T05:40:53.414Z,6.54
2022-11-23T05:43:19.615Z,6.50
2022-11-23T05:45:45.778Z,6.50
2022-11-23T05:48:11.982Z,6.46
2022-11-23T05:50:38.121Z,6.40
2022-11-23T05:53:04.232Z,6.38
2022-11-23T05:55:30.373Z,6.38
2022-11-23T05:57:56.494Z,6.33
2022-11-23T06:00:22.609Z,6.38
2022-11-23T06:02:48.728Z,6.29
2022-11-23T06:05:14.866Z,6.27
2022-11-23T06:07:41.079Z,6.28
2022-11-23T06:10:07.283Z,6.26
2022-11-23T06:12:33.392Z,6.24
2022-11-23T06:14:59.561Z,6.18
2022-11-23T06:17:25.703Z,6.03
2022-11-23T06:19:51.817Z,5.90
2022-11-23T06:22:17.931Z,5.88
2022-11-23T06:24:44.123Z,5.78
2022-11-23T06:27:13.978Z,5.66
2022-11-23T06:29:42.888Z,5.60
2022-11-23T06:32:09.017Z,5.53
2022-11-23T06:34:35.141Z,5.49
2022-11-23T06:37:01.276Z,5.50
2022-11-23T06:39:27.470Z,5.42
2022-11-23T06:41:57.050Z,5.30
2022-11-23T06:44:28.947Z,5.29
2022-11-23T06:46:55.071Z,5.24
2022-11-23T06:49:21.234Z,5.28
2022-11-23T06:51:47.358Z,5.26
2022-11-23T06:54:13.537Z,5.18
2022-11-23T06:56:39.711Z,5.06
2022-11-23T06:59:05.916Z,5.04
2022-11-23T07:01:32.153Z,4.98
2022-11-23T07:03:58.455Z,4.81
2022-11-23T07:06:24.606Z,4.66
2022-11-23T07:08:50.764Z,4.55
2022-11-23T07:11:16.945Z,4.44
2022-11-23T07:13:43.079Z,4.34
2022-11-23T07:16:09.211Z,4.33
2022-11-23T07:18:35.374Z,4.33
2022-11-23T07:21:01.528Z,4.24
2022-11-23T07:23:27.680Z,4.19
2022-11-23T07:25:53.831Z,4.17
2022-11-23T07:28:19.986Z,4.16
2022-11-23T07:30:46.189Z,4.15
2022-11-23T07:33:12.360Z,4.26
2022-11-23T07:35:38.513Z,4.25
2022-11-23T07:38:04.631Z,4.28
2022-11-23T07:40:30.816Z,4.32
2022-11-23T07:42:56.995Z,4.39
2022-11-23T07:45:23.155Z,4.50
2022-11-23T07:47:49.330Z,4.53
2022-11-23T07:50:15.481Z,4.59
2022-11-23T07:52:41.627Z,4.77
2022-11-23T07:55:07.792Z,5.01
2022-11-23T07:57:34.059Z,5.17
2022-11-23T08:00:00.283Z,5.24
2022-11-23T08:02:28.036Z,5.22
2022-11-23T08:04:54.240Z,5.30
2022-11-23T08:07:20.450Z,5.33
2022-11-23T08:09:46.572Z,5.40
2022-11-23T08:12:12.706Z,5.44
2022-11-23T08:14:38.873Z,5.49
2022-11-23T08:17:05.043Z,5.61
2022-11-23T08:19:31.184Z,5.71
2022-11-23T08:21:57.322Z,5.84
2022-11-23T08:24:23.439Z,5.94
2022-11-23T08:26:49.638Z,6.06
2022-11-23T08:29:15.760Z,6.07
2022-11-23T08:31:41.884Z,6.24
2022-11-23T08:34:08.017Z,6.33
2022-11-23T08:36:34.310Z,6.46
2022-11-23T08:39:02.399Z,6.56
2022-11-23T08:41:28.549Z,6.69
2022-11-23T08:43:54.712Z,6.90
2022-11-23T08:46:20.860Z,7.09
2022-11-23T08:48:47.050Z,7.62
2022-11-23T08:51:13.246Z,8.77
2022-11-23T08:53:39.389Z,9.87
2022-11-23T08:56:05.589Z,10.64
2022-11-23T08:58:31.763Z,11.01
2022-11-23T09:00:57.891Z,11.04
2022-11-23T09:03:24.040Z,11.14
2022-11-23T09:05:50.210Z,10.77
2022-11-23T09:08:16.435Z,10.92
2022-11-23T09:10:42.552Z,11.34
2022-11-23T09:13:08.698Z,11.43
2022-11-23T09:15:34.857Z,11.87
2022-11-23T09:18:01.016Z,11.39
2022-11-23T09:20:27.145Z,10.91
2022-11-23T09:22:53.258Z,11.46
2022-11-23T09:25:19.393Z,12.03
2022-11-23T09:27:45.547Z,12.20
2022-11-23T09:30:11.729Z,12.16
2022-11-23T09:32:37.893Z,12.16
2022-11-23T09:35:04.135Z,12.22
2022-11-23T09:37:30.301Z,12.35
2022-11-23T09:39:56.419Z,12.25
2022-11-23T09:42:22.601Z,12.49
2022-11-23T09:44:48.808Z,12.32
2022-11-23T09:47:14.912Z,12.54
2022-11-23T09:49:41.054Z,13.44
2022-11-23T09:52:07.203Z,13.76
2022-11-23T09:54:33.516Z,14.32
2022-11-23T09:57:01.949Z,15.01
2022-11-23T09:59:28.485Z,14.53
2022-11-23T10:01:54.674Z,14.09
2022-11-23T10:04:20.906Z,13.75
2022-11-23T10:06:47.074Z,13.86
2022-11-23T10:09:13.251Z,13.60
2022-11-23T10:11:39.393Z,13.71
2022-11-23T10:14:05.574Z,13.74
2022-11-23T10:16:31.765Z,13.22
2022-11-23T10:18:57.972Z,13.19
2022-11-23T10:21:24.201Z,12.82
2022-11-23T10:23:50.403Z,12.92
2022-11-23T10:26:16.574Z,12.73
2022-11-23T10:28:42.782Z,12.40
2022-11-23T10:31:08.956Z,12.67
2022-11-23T10:33:35.107Z,13.11
2022-11-23T10:36:01.284Z,13.23
2022-11-23T10:38:27.422Z,13.11
2022-11-23T10:40:53.572Z,13.37
2022-11-23T10:43:19.768Z,13.21
2022-11-23T10:45:45.924Z,13.31
2022-11-23T10:48:12.094Z,12.80
2022-11-23T10:50:38.298Z,13.30
2022-11-23T10:53:04.453Z,13.32
2022-11-23T10:55:30.624Z,14.43
2022-11-23T10:57:56.804Z,15.34
2022-11-23T11:00:28.812Z,16.08
2022-11-23T11:02:56.588Z,16.65
2022-11-23T11:05:35.464Z,17.24
2022-11-23T11:08:08.850Z,16.93
2022-11-23T11:10:34.977Z,16.51
2022-11-23T11:13:01.082Z,15.25
2022-11-23T11:15:27.250Z,14.92
2022-11-23T11:17:53.432Z,14.19
2022-11-23T11:20:19.610Z,13.44
2022-11-23T11:22:47.896Z,12.83
2022-11-23T11:25:14.265Z,12.19
2022-11-23T11:27:40.392Z,11.79
2022-11-23T11:30:06.577Z,11.77
2022-11-23T11:32:32.747Z,11.80
2022-11-23T11:34:58.870Z,11.61
2022-11-23T11:37:25.093Z,11.62
2022-11-23T11:39:51.218Z,11.67
2022-11-23T11:42:17.348Z,11.56
2022-11-23T11:44:43.511Z,11.65
2022-11-23T11:47:09.647Z,11.54
2022-11-23T11:49:35.797Z,11.65
2022-11-23T11:52:01.955Z,11.71
2022-11-23T11:54:28.173Z,11.69
2022-11-23T11:56:54.282Z,11.65
2022-11-23T11:59:20.420Z,11.43
2022-11-23T12:01:46.625Z,11.47
2022-11-23T12:04:12.731Z,11.36
2022-11-23T12:06:38.880Z,11.46
2022-11-23T12:09:05.036Z,11.44
2022-11-23T12:11:31.186Z,11.49
2022-11-23T12:13:57.319Z,11.44
2022-11-23T12:16:23.597Z,11.44
2022-11-23T12:18:49.805Z,11.43
2022-11-23T12:21:16.017Z,11.46
2022-11-23T12:23:42.205Z,11.38
2022-11-23T12:26:08.397Z,11.36
2022-11-23T12:28:34.528Z,11.33
2022-11-23T12:31:00.711Z,11.27
2022-11-23T12:33:26.828Z,11.22
2022-11-23T12:35:52.963Z,11.33
2022-11-23T12:38:19.128Z,11.42
2022-11-23T12:40:45.394Z,11.40
2022-11-23T12:43:11.543Z,11.34
2022-11-23T12:45:37.703Z,11.29
2022-11-23T12:48:03.912Z,11.31
2022-11-23T12:50:30.096Z,11.32
2022-11-23T12:52:56.314Z,11.34
2022-11-23T12:55:22.470Z,11.34
2022-11-23T12:57:48.609Z,11.39
2022-11-23T13:00:14.813Z,11.34
2022-11-23T13:02:40.982Z,11.29
2022-11-23T13:05:07.198Z,11.29
2022-11-23T13:07:41.015Z,11.19
2022-11-23T13:10:10.949Z,11.32
2022-11-23T13:12:37.126Z,11.38
2022-11-23T13:15:03.271Z,11.43
2022-11-23T13:17:29.416Z,11.39
2022-11-23T13:19:55.588Z,11.32
2022-11-23T13:22:21.771Z,11.40
2022-11-23T13:24:47.905Z,11.36
2022-11-23T13:27:14.066Z,11.46
2022-11-23T13:29:40.210Z,11.48
2022-11-23T13:32:06.428Z,11.50
2022-11-23T13:34:32.903Z,11.61
2022-11-23T13:37:14.663Z,11.62
2022-11-23T13:39:40.872Z,11.59
2022-11-23T13:42:07.013Z,11.57
2022-11-23T13:44:33.486Z,11.59
2022-11-23T13:46:59.840Z,11.64
2022-11-23T13:49:25.999Z,11.68
2022-11-23T13:51:52.218Z,11.69
2022-11-23T13:54:18.392Z,11.66
2022-11-23T13:56:44.538Z,11.70
2022-11-23T13:59:10.724Z,11.61
2022-11-23T14:01:36.897Z,11.69
2022-11-23T14:04:03.069Z,11.61
2022-11-23T14:06:29.191Z,11.57
2022-11-23T14:08:55.344Z,11.45
2022-11-23T14:11:21.537Z,11.37
2022-11-23T14:13:47.749Z,11.31
2022-11-23T14:16:13.969Z,11.19
2022-11-23T14:18:40.126Z,11.10
2022-11-23T14:21:06.266Z,11.04
2022-11-23T14:23:32.421Z,10.93
2022-11-23T14:25:58.606Z,10.80
2022-11-23T14:28:24.746Z,10.73
2022-11-23T14:30:50.866Z,10.65
2022-11-23T14:33:17.052Z,10.68
2022-11-23T14:35:43.227Z,10.67
2022-11-23T14:38:09.396Z,10.52
2022-11-23T14:40:35.543Z,10.47
2022-11-23T14:43:01.733Z,10.28
2022-11-23T14:45:27.967Z,10.13
2022-11-23T14:47:54.118Z,10.00
2022-11-23T14:50:20.331Z,9.91
2022-11-23T14:52:46.457Z,9.94
2022-11-23T14:55:12.610Z,9.94
2022-11-23T14:57:38.791Z,9.90
2022-11-23T15:00:11.441Z,9.85
2022-11-23T15:02:38.035Z,9.76
2022-11-23T15:05:04.268Z,9.77
2022-11-23T15:07:30.604Z,9.65
2022-11-23T15:09:56.777Z,9.51
2022-11-23T15:12:22.935Z,9.49
2022-11-23T15:14:49.085Z,9.39
2022-11-23T15:17:15.239Z,9.32
2022-11-23T15:19:41.363Z,9.28
2022-11-23T15:22:07.549Z,9.33
2022-11-23T15:24:33.791Z,9.30
2022-11-23T15:27:00.038Z,9.23
2022-11-23T15:29:26.160Z,9.29
2022-11-23T15:32:14.237Z,9.31
2022-11-23T15:34:38.462Z,9.30
2022-11-23T15:37:04.685Z,9.30
2022-11-23T15:39:31.301Z,9.31
2022-11-23T15:41:57.750Z,9.28
2022-11-23T15:44:23.943Z,9.32
2022-11-23T15:46:50.079Z,9.32
2022-11-23T15:49:16.259Z,9.32
2022-11-23T15:51:42.438Z,9.34
2022-11-23T15:54:08.617Z,9.39
2022-11-23T15:56:34.830Z,9.36
2022-11-23T15:59:01.003Z,9.42
2022-11-23T16:01:27.174Z,9.41
2022-11-23T16:03:53.314Z,9.47
2022-11-23T16:06:19.464Z,9.45
2022-11-23T16:08:45.616Z,9.52
2022-11-23T16:11:11.815Z,9.52
2022-11-23T16:13:37.937Z,9.56
2022-11-23T16:16:04.099Z,9.52
2022-11-23T16:18:30.232Z,9.45
2022-11-23T16:20:56.416Z,9.50
2022-11-23T16:23:22.554Z,9.47
2022-11-23T16:25:48.698Z,9.50
2022-11-23T16:28:14.864Z,9.49
2022-11-23T16:30:41.109Z,9.47
2022-11-23T16:33:07.319Z,9.46
2022-11-23T16:35:33.463Z,9.50
2022-11-23T16:37:59.663Z,9.49
2022-11-23T16:40:25.782Z,9.52
2022-11-23T16:42:51.964Z,9.44
2022-11-23T16:45:18.096Z,9.33
2022-11-23T16:47:44.278Z,9.29
2022-11-23T16:50:10.461Z,9.25
2022-11-23T16:52:36.656Z,9.26
2022-11-23T16:55:02.771Z,9.23
2022-11-23T16:57:29.027Z,9.16
2022-11-23T16:59:55.258Z,9.02
2022-11-23T17:02:21.427Z,8.84
2022-11-23T17:04:47.679Z,8.69
2022-11-23T17:07:14.042Z,8.69
2022-11-23T17:09:40.225Z,8.52
2022-11-23T17:12:06.379Z,8.48
2022-11-23T17:14:32.833Z,8.38
2022-11-23T17:17:02.210Z,8.24
2022-11-23T17:19:28.413Z,8.15
2022-11-23T17:21:54.533Z,8.06
2022-11-23T17:24:20.686Z,8.11
2022-11-23T17:26:46.843Z,7.92
2022-11-23T17:29:13.026Z,7.88
2022-11-23T17:31:39.186Z,7.86
2022-11-23T17:34:05.305Z,7.75
2022-11-23T17:36:31.442Z,7.72
2022-11-23T17:38:57.572Z,7.70
2022-11-23T17:44:13.844Z,7.58
2022-11-23T17:46:40.057Z,7.59
2022-11-23T17:49:06.269Z,7.60
2022-11-23T17:51:32.397Z,7.58
2022-11-23T17:53:58.575Z,7.61
2022-11-23T17:56:24.718Z,7.54
2022-11-23T17:58:50.850Z,7.54
2022-11-23T18:01:17.137Z,7.52
2022-11-23T18:03:43.407Z,7.53
2022-11-23T18:06:09.600Z,7.53
2022-11-23T18:08:35.920Z,7.59
2022-11-23T18:11:03.263Z,7.58
2022-11-23T18:13:29.579Z,7.56
2022-11-23T18:15:56.113Z,7.56
2022-11-23T18:18:22.365Z,7.57
2022-11-23T18:20:48.529Z,7.59
2022-11-23T18:23:14.790Z,7.62
2022-11-23T18:25:41.199Z,7.64
2022-11-23T18:28:07.392Z,7.67
2022-11-23T18:30:33.789Z,7.70
2022-11-23T18:33:02.326Z,7.70
2022-11-23T18:35:28.569Z,7.78
2022-11-23T18:37:54.701Z,7.75
2022-11-23T18:40:20.817Z,7.72
2022-11-23T18:42:47.028Z,7.76
2022-11-23T18:45:13.229Z,7.78
2022-11-23T18:47:39.373Z,7.72
2022-11-23T18:50:06.833Z,7.72
2022-11-23T18:52:33.143Z,7.71
2022-11-23T18:54:59.356Z,7.73
2022-11-23T18:57:25.552Z,7.76
2022-11-23T18:59:59.192Z,7.73
2022-11-23T19:02:25.565Z,7.73
2022-11-23T19:04:51.697Z,7.80
2022-11-23T19:07:20.913Z,7.75
2022-11-23T19:09:51.361Z,7.78
2022-11-23T19:12:17.534Z,7.80
2022-11-23T19:14:43.716Z,7.78
2022-11-23T19:17:09.904Z,7.77
2022-11-23T19:19:36.371Z,7.81
2022-11-23T19:22:02.999Z,7.78
2022-11-23T19:24:29.184Z,7.77
2022-11-23T19:26:55.353Z,7.77
2022-11-23T19:29:24.833Z,7.72
2022-11-23T19:31:51.202Z,7.79
2022-11-23T19:34:17.358Z,7.78
2022-11-23T19:36:43.518Z,7.79
2022-11-23T19:39:09.719Z,7.79
2022-11-23T19:41:35.899Z,7.77
2022-11-23T19:44:02.157Z,7.73
2022-11-23T19:46:28.369Z,7.72
2022-11-23T19:48:54.611Z,7.72
2022-11-23T19:51:20.783Z,7.77
2022-11-23T19:53:46.949Z,7.76
2022-11-23T19:56:13.133Z,7.80
2022-11-23T19:58:39.268Z,7.78
2022-11-23T20:01:05.414Z,7.77
2022-11-23T20:03:31.797Z,7.77
2022-11-23T20:06:03.962Z,7.71
2022-11-23T20:08:30.073Z,7.63
2022-11-23T20:10:56.296Z,7.55
2022-11-23T20:16:13.211Z,7.47
2022-11-23T20:18:39.390Z,7.46
2022-11-23T20:21:06.044Z,7.45
2022-11-23T20:23:32.260Z,7.50
2022-11-23T20:25:58.446Z,7.43
2022-11-23T20:28:24.589Z,7.42
2022-11-23T20:30:50.984Z,7.33
2022-11-23T20:33:17.163Z,7.21
2022-11-23T20:35:43.375Z,7.00
2022-11-23T20:38:09.503Z,6.91
2022-11-23T20:40:35.705Z,6.85
2022-11-23T20:43:01.930Z,6.72
2022-11-23T20:45:28.108Z,6.70
2022-11-23T20:47:54.347Z,6.61
2022-11-23T20:50:20.486Z,6.42
2022-11-23T20:52:46.613Z,6.33
2022-11-23T20:55:12.803Z,6.27
2022-11-23T20:57:38.981Z,6.15
2022-11-23T21:00:05.152Z,6.11
2022-11-23T21:02:31.438Z,6.15
2022-11-23T21:04:57.665Z,6.20
2022-11-23T21:07:23.986Z,6.22
2022-11-23T21:09:50.209Z,6.33
2022-11-23T21:12:16.457Z,6.48
2022-11-23T21:14:42.821Z,6.60
2022-11-23T21:17:09.028Z,6.65
2022-11-23T21:19:35.221Z,6.62
2022-11-23T21:22:01.412Z,6.54
2022-11-23T21:24:27.608Z,6.42
2022-11-23T21:26:53.824Z,6.25
2022-11-23T21:29:20.182Z,6.08
2022-11-23T21:31:46.422Z,5.93
2022-11-23T21:34:12.632Z,5.90
2022-11-23T21:36:38.919Z,5.79
2022-11-23T21:39:05.124Z,5.69
2022-11-23T21:41:31.340Z,5.59
2022-11-23T21:43:57.660Z,5.50
2022-11-23T21:46:23.915Z,5.45
2022-11-23T21:48:50.107Z,5.50
2022-11-23T21:51:16.275Z,5.58
2022-11-23T21:53:42.462Z,5.66
2022-11-23T21:56:08.621Z,5.79
2022-11-23T21:58:34.856Z,5.86
2022-11-23T22:01:01.088Z,5.95
2022-11-23T22:03:27.419Z,6.01
2022-11-23T22:05:53.538Z,6.03
2022-11-23T22:08:35.131Z,6.00
2022-11-23T22:11:01.319Z,5.92
2022-11-23T22:13:34.020Z,5.82
2022-11-23T22:16:02.837Z,5.74
2022-11-23T22:18:28.992Z,5.67
2022-11-23T22:20:55.144Z,5.62
2022-11-23T22:23:21.396Z,5.64
2022-11-23T22:25:48.350Z,5.75
2022-11-23T22:28:14.502Z,5.79
2022-11-23T22:30:40.643Z,5.80
2022-11-23T22:33:06.810Z,5.73
2022-11-23T22:35:33.008Z,5.71
2022-11-23T22:37:59.159Z,5.60
2022-11-23T22:40:25.289Z,5.57
2022-11-23T22:42:51.495Z,5.62
2022-11-23T22:45:17.620Z,6.03
2022-11-23T22:47:43.761Z,6.24
2022-11-23T22:50:09.937Z,6.56
2022-11-23T22:52:36.048Z,6.87
2022-11-23T22:55:02.181Z,7.11
2022-11-23T22:57:28.320Z,7.30
2022-11-23T22:59:54.543Z,7.44
2022-11-23T23:02:20.774Z,7.55
2022-11-23T23:04:46.961Z,7.73
2022-11-23T23:07:13.127Z,7.84
2022-11-23T23:09:39.272Z,7.90
2022-11-23T23:12:05.429Z,8.00
2022-11-23T23:14:31.929Z,7.99
2022-11-23T23:16:58.433Z,8.06
2022-11-23T23:19:24.655Z,8.13
2022-11-23T23:21:50.797Z,8.12
2022-11-23T23:24:16.968Z,8.08
2022-11-23T23:26:43.127Z,8.11
2022-11-23T23:29:09.248Z,8.09
2022-11-23T23:31:35.446Z,8.11
2022-11-23T23:34:01.666Z,8.14
2022-11-23T23:36:27.807Z,8.10
2022-11-23T23:38:53.938Z,8.10
2022-11-23T23:41:20.153Z,8.15
2022-11-23T23:43:46.335Z,8.16
2022-11-23T23:46:12.572Z,8.07
2022-11-23T23:48:38.738Z,7.95
2022-11-23T23:51:04.881Z,7.92
2022-11-23T23:53:31.006Z,7.69
2022-11-23T23:55:57.224Z,7.53
2022-11-23T23:58:23.479Z,7.49
